createdAt,value
2019-02-24T00:01:10.649Z,1019.80
2019-02-24T00:02:21.790Z,1019.75
2019-02-24T00:03:32.925Z,1019.74
2019-02-24T00:04:44.075Z,1019.76
2019-02-24T00:05:55.214Z,1019.75
2019-02-24T00:07:06.346Z,1019.73
2019-02-24T00:08:17.486Z,1019.70
2019-02-24T00:09:28.636Z,1019.70
2019-02-24T00:10:39.787Z,1019.67
2019-02-24T00:11:50.920Z,1019.67
2019-02-24T00:13:02.066Z,1019.69
2019-02-24T00:14:13.210Z,1019.63
2019-02-24T00:15:24.348Z,1019.68
2019-02-24T00:16:35.492Z,1019.69
2019-02-24T00:17:46.634Z,1019.67
2019-02-24T00:18:57.786Z,1019.65
2019-02-24T00:20:08.938Z,1019.66
2019-02-24T00:21:20.073Z,1019.65
2019-02-24T00:22:32.204Z,1019.67
2019-02-24T00:23:43.341Z,1019.66
2019-02-24T00:24:54.002Z,1019.68
2019-02-24T00:26:05.145Z,1019.64
2019-02-24T00:27:16.294Z,1019.63
2019-02-24T00:28:27.448Z,1019.67
2019-02-24T00:29:38.640Z,1019.61
2019-02-24T00:30:49.748Z,1019.65
2019-02-24T00:32:00.867Z,1019.64
2019-02-24T00:33:12.015Z,1019.63
2019-02-24T00:34:23.166Z,1019.60
2019-02-24T00:35:34.314Z,1019.59
2019-02-24T00:36:45.451Z,1019.58
2019-02-24T00:37:56.622Z,1019.57
2019-02-24T00:39:07.766Z,1019.60
2019-02-24T00:40:18.922Z,1019.56
2019-02-24T00:41:30.056Z,1019.58
2019-02-24T00:42:41.190Z,1019.58
2019-02-24T00:43:51.843Z,1019.56
2019-02-24T00:45:03.976Z,1019.55
2019-02-24T00:46:15.119Z,1019.57
2019-02-24T00:47:25.764Z,1019.55
2019-02-24T00:48:36.913Z,1019.51
2019-02-24T00:49:47.586Z,1019.50
2019-02-24T00:50:58.702Z,1019.53
2019-02-24T00:52:09.840Z,1019.53
2019-02-24T00:53:20.993Z,1019.50
2019-02-24T00:54:32.122Z,1019.52
2019-02-24T00:55:43.267Z,1019.54
2019-02-24T00:56:54.413Z,1019.52
2019-02-24T00:58:05.556Z,1019.59
2019-02-24T00:59:16.697Z,1019.61
2019-02-24T01:00:27.346Z,1019.58
2019-02-24T01:01:38.615Z,1019.58
2019-02-24T01:02:49.755Z,1019.56
2019-02-24T01:04:00.891Z,1019.61
2019-02-24T01:05:11.536Z,1019.59
2019-02-24T01:06:22.170Z,1019.64
2019-02-24T01:07:33.302Z,1019.62
2019-02-24T01:08:44.440Z,1019.61
2019-02-24T01:09:55.087Z,1019.65
2019-02-24T01:11:06.226Z,1019.62
2019-02-24T01:12:17.377Z,1019.66
2019-02-24T01:13:28.619Z,1019.73
2019-02-24T01:14:39.264Z,1019.69
2019-02-24T01:15:50.400Z,1019.76
2019-02-24T01:17:01.530Z,1019.76
2019-02-24T01:18:12.683Z,1019.74
2019-02-24T01:19:23.812Z,1019.75
2019-02-24T01:20:34.955Z,1019.69
2019-02-24T01:21:46.082Z,1019.73
2019-02-24T01:22:57.209Z,1019.74
2019-02-24T01:24:07.841Z,1019.70
2019-02-24T01:25:18.622Z,1019.71
2019-02-24T01:26:29.755Z,1019.67
2019-02-24T01:27:40.396Z,1019.68
2019-02-24T01:28:51.527Z,1019.60
2019-02-24T01:30:02.686Z,1019.57
2019-02-24T01:31:13.816Z,1019.59
2019-02-24T01:32:24.949Z,1019.58
2019-02-24T01:33:36.075Z,1019.60
2019-02-24T01:34:47.215Z,1019.58
2019-02-24T01:35:57.854Z,1019.58
2019-02-24T01:37:08.978Z,1019.56
2019-02-24T01:38:20.122Z,1019.59
2019-02-24T01:39:30.762Z,1019.57
2019-02-24T01:40:41.917Z,1019.59
2019-02-24T01:41:53.044Z,1019.58
2019-02-24T01:43:04.170Z,1019.63
2019-02-24T01:44:15.305Z,1019.57
2019-02-24T01:45:26.435Z,1019.59
2019-02-24T01:46:37.577Z,1019.58
2019-02-24T01:47:48.712Z,1019.57
2019-02-24T01:48:59.852Z,1019.55
2019-02-24T01:50:10.991Z,1019.57
2019-02-24T01:51:22.121Z,1019.60
2019-02-24T01:52:33.245Z,1019.58
2019-02-24T01:53:44.379Z,1019.59
2019-02-24T01:54:55.019Z,1019.57
2019-02-24T01:56:06.158Z,1019.61
2019-02-24T01:57:17.295Z,1019.58
2019-02-24T01:58:34.800Z,1019.57
2019-02-24T01:59:38.561Z,1019.59
2019-02-24T02:00:49.687Z,1019.54
2019-02-24T02:02:00.826Z,1019.54
2019-02-24T02:03:11.958Z,1019.55
2019-02-24T02:04:23.081Z,1019.57
2019-02-24T02:05:33.720Z,1019.55
2019-02-24T02:06:44.358Z,1019.53
2019-02-24T02:07:55.501Z,1019.52
2019-02-24T02:09:07.579Z,1019.50
2019-02-24T02:10:18.222Z,1019.52
2019-02-24T02:11:29.367Z,1019.55
2019-02-24T02:12:40.612Z,1019.60
2019-02-24T02:13:51.735Z,1019.59
2019-02-24T02:15:02.874Z,1019.54
2019-02-24T02:16:13.998Z,1019.56
2019-02-24T02:17:25.138Z,1019.54
2019-02-24T02:18:36.280Z,1019.56
2019-02-24T02:19:47.414Z,1019.55
2019-02-24T02:20:58.619Z,1019.51
2019-02-24T02:22:09.754Z,1019.50
2019-02-24T02:23:20.877Z,1019.49
2019-02-24T02:24:31.523Z,1019.43
2019-02-24T02:25:42.678Z,1019.41
2019-02-24T02:26:53.809Z,1019.37
2019-02-24T02:28:04.935Z,1019.39
2019-02-24T02:29:15.568Z,1019.38
2019-02-24T02:30:26.705Z,1019.32
2019-02-24T02:31:37.822Z,1019.32
2019-02-24T02:32:48.958Z,1019.32
2019-02-24T02:34:00.090Z,1019.29
2019-02-24T02:35:11.214Z,1019.33
2019-02-24T02:36:22.344Z,1019.30
2019-02-24T02:37:32.978Z,1019.28
2019-02-24T02:38:44.103Z,1019.34
2019-02-24T02:39:55.234Z,1019.30
2019-02-24T02:41:06.368Z,1019.30
2019-02-24T02:42:17.010Z,1019.30
2019-02-24T02:43:28.146Z,1019.31
2019-02-24T02:44:38.779Z,1019.32
2019-02-24T02:45:49.411Z,1019.32
2019-02-24T02:47:00.611Z,1019.33
2019-02-24T02:48:11.735Z,1019.26
2019-02-24T02:49:22.370Z,1019.31
2019-02-24T02:50:33.011Z,1019.26
2019-02-24T02:51:44.148Z,1019.23
2019-02-24T02:52:55.265Z,1019.23
2019-02-24T02:54:06.384Z,1019.20
2019-02-24T02:55:17.505Z,1019.19
2019-02-24T02:56:28.628Z,1019.17
2019-02-24T02:57:40.761Z,1019.14
2019-02-24T02:58:54.226Z,1019.13
2019-02-24T03:00:02.614Z,1019.10
2019-02-24T03:01:13.750Z,1019.14
2019-02-24T03:02:24.902Z,1019.15
2019-02-24T03:03:35.028Z,1019.11
2019-02-24T03:04:46.147Z,1019.10
2019-02-24T03:05:57.265Z,1019.09
2019-02-24T03:07:07.892Z,1019.11
2019-02-24T03:08:19.029Z,1019.10
2019-02-24T03:09:30.154Z,1019.10
2019-02-24T03:10:41.272Z,1019.12
2019-02-24T03:11:52.397Z,1019.11
2019-02-24T03:13:03.037Z,1019.10
2019-02-24T03:14:14.169Z,1019.10
2019-02-24T03:15:24.793Z,1019.10
2019-02-24T03:16:35.930Z,1019.09
2019-02-24T03:17:47.057Z,1019.11
2019-02-24T03:18:58.191Z,1019.09
2019-02-24T03:20:09.310Z,1019.11
2019-02-24T03:21:19.957Z,1019.13
2019-02-24T03:22:31.070Z,1019.16
2019-02-24T03:23:42.699Z,1019.18
2019-02-24T03:24:53.812Z,1019.23
2019-02-24T03:26:04.923Z,1019.23
2019-02-24T03:27:16.050Z,1019.24
2019-02-24T03:28:27.165Z,1019.30
2019-02-24T03:29:38.797Z,1019.22
2019-02-24T03:30:49.910Z,1019.25
2019-02-24T03:32:00.543Z,1019.23
2019-02-24T03:33:11.662Z,1019.24
2019-02-24T03:34:22.783Z,1019.20
2019-02-24T03:35:33.412Z,1019.20
2019-02-24T03:36:44.619Z,1019.22
2019-02-24T03:37:55.249Z,1019.19
2019-02-24T03:39:06.373Z,1019.20
2019-02-24T03:40:17.516Z,1019.15
2019-02-24T03:41:28.145Z,1019.15
2019-02-24T03:42:38.779Z,1019.12
2019-02-24T03:43:49.905Z,1019.11
2019-02-24T03:45:01.019Z,1019.11
2019-02-24T03:46:12.132Z,1019.08
2019-02-24T03:47:23.256Z,1019.12
2019-02-24T03:48:33.879Z,1019.05
2019-02-24T03:49:45.011Z,1019.07
2019-02-24T03:50:56.125Z,1019.08
2019-02-24T03:52:07.236Z,1019.06
2019-02-24T03:53:18.358Z,1019.06
2019-02-24T03:54:29.478Z,1019.10
2019-02-24T03:55:40.625Z,1019.14
2019-02-24T03:56:51.743Z,1019.15
2019-02-24T03:58:02.858Z,1019.14
2019-02-24T03:59:15.264Z,1019.15
2019-02-24T04:00:25.101Z,1019.19
2019-02-24T04:01:36.217Z,1019.13
2019-02-24T04:02:47.361Z,1019.12
2019-02-24T04:03:58.616Z,1019.13
2019-02-24T04:05:09.438Z,1019.12
2019-02-24T04:06:20.069Z,1019.15
2019-02-24T04:07:31.191Z,1019.16
2019-02-24T04:08:41.813Z,1019.13
2019-02-24T04:09:52.944Z,1019.12
2019-02-24T04:11:04.069Z,1019.08
2019-02-24T04:12:15.180Z,1019.14
2019-02-24T04:13:26.304Z,1019.15
2019-02-24T04:14:37.423Z,1019.13
2019-02-24T04:15:48.629Z,1019.16
2019-02-24T04:16:59.755Z,1019.11
2019-02-24T04:18:10.372Z,1019.12
2019-02-24T04:19:21.494Z,1019.04
2019-02-24T04:20:32.137Z,1019.10
2019-02-24T04:21:43.258Z,1019.04
2019-02-24T04:22:54.368Z,1019.05
2019-02-24T04:24:05.491Z,1018.99
2019-02-24T04:25:16.612Z,1018.95
2019-02-24T04:26:27.739Z,1018.96
2019-02-24T04:27:38.357Z,1018.89
2019-02-24T04:28:49.479Z,1018.90
2019-02-24T04:30:00.622Z,1018.85
2019-02-24T04:31:11.748Z,1018.91
2019-02-24T04:32:22.869Z,1018.92
2019-02-24T04:33:33.982Z,1018.94
2019-02-24T04:34:44.607Z,1018.92
2019-02-24T04:35:55.728Z,1018.93
2019-02-24T04:37:06.349Z,1018.92
2019-02-24T04:38:16.977Z,1018.91
2019-02-24T04:39:28.086Z,1018.88
2019-02-24T04:40:39.207Z,1018.92
2019-02-24T04:41:50.332Z,1018.89
2019-02-24T04:43:01.449Z,1018.89
2019-02-24T04:44:12.610Z,1018.92
2019-02-24T04:45:23.732Z,1018.94
2019-02-24T04:46:34.861Z,1018.96
2019-02-24T04:47:45.980Z,1018.94
2019-02-24T04:48:56.599Z,1019.01
2019-02-24T04:50:07.706Z,1018.99
2019-02-24T04:51:18.842Z,1018.99
2019-02-24T04:52:29.950Z,1019.02
2019-02-24T04:53:41.071Z,1019.02
2019-02-24T04:54:52.194Z,1019.02
2019-02-24T04:56:03.308Z,1019.02
2019-02-24T04:57:13.934Z,1019.00
2019-02-24T04:58:25.046Z,1018.97
2019-02-24T04:59:37.160Z,1018.98
2019-02-24T05:00:48.290Z,1018.99
2019-02-24T05:01:59.415Z,1019.03
2019-02-24T05:03:10.610Z,1018.99
2019-02-24T05:04:21.721Z,1019.02
2019-02-24T05:05:32.842Z,1019.00
2019-02-24T05:06:43.951Z,1019.00
2019-02-24T05:07:55.066Z,1019.01
2019-02-24T05:09:05.692Z,1019.05
2019-02-24T05:10:16.820Z,1019.04
2019-02-24T05:11:27.922Z,1019.04
2019-02-24T05:12:39.049Z,1019.04
2019-02-24T05:13:50.163Z,1019.06
2019-02-24T05:15:01.285Z,1019.08
2019-02-24T05:16:12.404Z,1019.06
2019-02-24T05:17:23.038Z,1019.05
2019-02-24T05:18:34.156Z,1019.04
2019-02-24T05:19:45.271Z,1019.07
2019-02-24T05:20:57.380Z,1019.10
2019-02-24T05:22:08.616Z,1019.02
2019-02-24T05:23:19.740Z,1019.06
2019-02-24T05:24:30.850Z,1019.04
2019-02-24T05:25:41.974Z,1019.08
2019-02-24T05:26:53.083Z,1019.06
2019-02-24T05:28:04.199Z,1019.10
2019-02-24T05:29:15.321Z,1019.09
2019-02-24T05:30:26.427Z,1019.08
2019-02-24T05:31:37.544Z,1019.10
2019-02-24T05:32:48.658Z,1019.11
2019-02-24T05:33:59.292Z,1019.14
2019-02-24T05:35:10.408Z,1019.10
2019-02-24T05:36:21.523Z,1019.10
2019-02-24T05:37:32.143Z,1019.10
2019-02-24T05:38:43.263Z,1019.09
2019-02-24T05:39:54.367Z,1019.07
2019-02-24T05:41:05.490Z,1019.10
2019-02-24T05:42:16.618Z,1019.10
2019-02-24T05:43:27.723Z,1019.08
2019-02-24T05:44:38.344Z,1019.07
2019-02-24T05:45:49.451Z,1019.12
2019-02-24T05:47:00.613Z,1019.11
2019-02-24T05:48:11.745Z,1019.11
2019-02-24T05:49:22.859Z,1019.11
2019-02-24T05:50:33.493Z,1019.11
2019-02-24T05:51:44.615Z,1019.10
2019-02-24T05:52:55.236Z,1019.08
2019-02-24T05:54:06.366Z,1019.09
2019-02-24T05:55:17.463Z,1019.11
2019-02-24T05:56:28.628Z,1019.11
2019-02-24T05:57:39.718Z,1019.06
2019-02-24T05:58:50.839Z,1019.10
2019-02-24T06:00:01.479Z,1019.10
2019-02-24T06:01:12.583Z,1019.05
2019-02-24T06:02:23.711Z,1019.06
2019-02-24T06:03:35.824Z,1019.09
2019-02-24T06:04:46.929Z,1019.08
2019-02-24T06:05:58.044Z,1019.07
2019-02-24T06:07:08.666Z,1019.07
2019-02-24T06:08:19.780Z,1019.06
2019-02-24T06:09:30.891Z,1019.10
2019-02-24T06:10:42.014Z,1019.09
2019-02-24T06:11:52.618Z,1019.07
2019-02-24T06:13:03.718Z,1019.11
2019-02-24T06:14:14.834Z,1019.10
2019-02-24T06:15:25.441Z,1019.10
2019-02-24T06:16:36.615Z,1019.05
2019-02-24T06:17:47.731Z,1019.05
2019-02-24T06:18:58.854Z,1019.08
2019-02-24T06:20:09.957Z,1019.12
2019-02-24T06:21:21.073Z,1019.08
2019-02-24T06:22:31.685Z,1019.09
2019-02-24T06:23:42.796Z,1019.12
2019-02-24T06:24:53.907Z,1019.11
2019-02-24T06:26:05.014Z,1019.08
2019-02-24T06:27:16.128Z,1019.09
2019-02-24T06:28:27.236Z,1019.11
2019-02-24T06:29:38.360Z,1019.10
2019-02-24T06:30:49.477Z,1019.08
2019-02-24T06:32:00.613Z,1019.10
2019-02-24T06:33:11.719Z,1019.12
2019-02-24T06:34:22.826Z,1019.10
2019-02-24T06:35:35.961Z,1019.12
2019-02-24T06:36:45.556Z,1019.09
2019-02-24T06:37:56.167Z,1019.10
2019-02-24T06:39:07.282Z,1019.12
2019-02-24T06:40:18.403Z,1019.09
2019-02-24T06:41:29.518Z,1019.12
2019-02-24T06:42:40.138Z,1019.12
2019-02-24T06:43:50.758Z,1019.05
2019-02-24T06:45:01.872Z,1019.05
2019-02-24T06:46:12.989Z,1019.05
2019-02-24T06:47:23.614Z,1019.04
2019-02-24T06:48:34.725Z,1019.05
2019-02-24T06:49:45.340Z,1019.04
2019-02-24T06:50:55.957Z,1019.04
2019-02-24T06:52:07.066Z,1019.05
2019-02-24T06:53:18.183Z,1019.07
2019-02-24T06:54:28.801Z,1019.02
2019-02-24T06:55:39.422Z,1019.01
2019-02-24T06:56:50.040Z,1019.02
2019-02-24T06:58:00.664Z,1019.06
2019-02-24T06:59:11.784Z,1019.03
2019-02-24T07:00:22.907Z,1019.00
2019-02-24T07:01:34.008Z,1019.03
2019-02-24T07:02:45.129Z,1018.99
2019-02-24T07:03:56.243Z,1019.02
2019-02-24T07:05:07.357Z,1019.02
2019-02-24T07:06:17.984Z,1019.00
2019-02-24T07:07:28.614Z,1018.99
2019-02-24T07:08:39.242Z,1019.03
2019-02-24T07:09:50.343Z,1019.04
2019-02-24T07:11:00.978Z,1019.03
2019-02-24T07:12:12.086Z,1019.09
2019-02-24T07:13:23.193Z,1019.14
2019-02-24T07:14:33.813Z,1019.14
2019-02-24T07:15:44.944Z,1019.16
2019-02-24T07:16:56.064Z,1019.15
2019-02-24T07:18:07.236Z,1019.13
2019-02-24T07:19:18.295Z,1019.12
2019-02-24T07:20:30.426Z,1019.12
2019-02-24T07:21:41.050Z,1019.09
2019-02-24T07:22:52.177Z,1019.09
2019-02-24T07:24:03.296Z,1019.08
2019-02-24T07:25:14.411Z,1019.07
2019-02-24T07:26:25.034Z,1019.11
2019-02-24T07:27:36.153Z,1019.09
2019-02-24T07:28:46.774Z,1019.12
2019-02-24T07:29:57.884Z,1019.09
2019-02-24T07:31:09.004Z,1019.07
2019-02-24T07:32:20.147Z,1019.06
2019-02-24T07:33:30.768Z,1019.08
2019-02-24T07:34:41.893Z,1019.05
2019-02-24T07:35:53.005Z,1019.04
2019-02-24T07:37:12.573Z,1019.04
2019-02-24T07:38:14.760Z,1019.02
2019-02-24T07:39:25.879Z,1019.01
2019-02-24T07:40:37.003Z,1019.00
2019-02-24T07:41:48.114Z,1019.00
2019-02-24T07:42:58.742Z,1018.97
2019-02-24T07:44:09.863Z,1018.96
2019-02-24T07:45:20.994Z,1018.93
2019-02-24T07:46:32.113Z,1018.93
2019-02-24T07:47:43.240Z,1018.92
2019-02-24T07:48:53.860Z,1018.98
2019-02-24T07:50:04.986Z,1018.95
2019-02-24T07:51:16.114Z,1018.91
2019-02-24T07:52:27.233Z,1018.93
2019-02-24T07:53:38.350Z,1018.89
2019-02-24T07:54:49.468Z,1018.85
2019-02-24T07:56:00.616Z,1018.84
2019-02-24T07:57:11.247Z,1018.79
2019-02-24T07:58:22.389Z,1018.69
2019-02-24T07:59:33.029Z,1018.71
2019-02-24T08:00:44.155Z,1018.74
2019-02-24T08:01:54.784Z,1018.69
2019-02-24T08:03:05.908Z,1018.64
2019-02-24T08:04:17.025Z,1018.58
2019-02-24T08:05:28.145Z,1018.51
2019-02-24T08:06:39.263Z,1018.44
2019-02-24T08:07:49.913Z,1018.38
2019-02-24T08:09:01.030Z,1018.32
2019-02-24T08:10:12.156Z,1018.25
2019-02-24T08:11:22.781Z,1018.11
2019-02-24T08:12:33.896Z,1018.02
2019-02-24T08:13:45.032Z,1017.94
2019-02-24T08:14:56.150Z,1017.88
2019-02-24T08:16:07.282Z,1017.75
2019-02-24T08:17:18.417Z,1017.66
2019-02-24T08:18:29.545Z,1017.59
2019-02-24T08:19:40.683Z,1017.55
2019-02-24T08:20:51.328Z,1017.53
2019-02-24T08:22:02.473Z,1017.42
2019-02-24T08:23:13.576Z,1017.37
2019-02-24T08:24:24.214Z,1017.31
2019-02-24T08:25:35.348Z,1017.28
2019-02-24T08:26:46.611Z,1017.21
2019-02-24T08:27:57.745Z,1017.17
2019-02-24T08:29:08.876Z,1017.14
2019-02-24T08:30:19.511Z,1017.05
2019-02-24T08:31:30.638Z,1017.03
2019-02-24T08:32:41.770Z,1016.94
2019-02-24T08:33:52.897Z,1016.95
2019-02-24T08:35:04.333Z,1016.94
2019-02-24T08:36:14.975Z,1016.91
2019-02-24T08:37:26.107Z,1016.86
2019-02-24T08:38:37.243Z,1016.81
2019-02-24T08:39:48.382Z,1016.79
2019-02-24T08:40:59.511Z,1016.72
2019-02-24T08:42:10.654Z,1016.67
2019-02-24T08:43:21.797Z,1016.68
2019-02-24T08:44:32.956Z,1016.66
2019-02-24T08:45:44.078Z,1016.58
2019-02-24T08:46:55.218Z,1016.56
2019-02-24T08:48:06.359Z,1016.51
2019-02-24T08:49:17.508Z,1016.44
2019-02-24T08:50:28.638Z,1016.42
2019-02-24T08:51:39.784Z,1016.37
2019-02-24T08:52:50.943Z,1016.31
2019-02-24T08:54:01.586Z,1016.24
2019-02-24T08:55:12.243Z,1016.20
2019-02-24T08:56:23.381Z,1016.16
2019-02-24T08:57:34.624Z,1016.10
2019-02-24T08:58:45.768Z,1016.06
2019-02-24T08:59:56.921Z,1016.04
2019-02-24T09:01:08.072Z,1015.99
2019-02-24T09:02:19.209Z,1015.98
2019-02-24T09:03:30.344Z,1015.95
2019-02-24T09:04:40.997Z,1015.94
2019-02-24T09:05:52.147Z,1015.94
2019-02-24T09:07:02.806Z,1015.96
2019-02-24T09:08:13.459Z,1016.04
2019-02-24T09:09:24.613Z,1015.98
2019-02-24T09:10:35.759Z,1015.97
2019-02-24T09:11:46.899Z,1015.99
2019-02-24T09:12:57.548Z,1016.01
2019-02-24T09:14:08.697Z,1016.02
2019-02-24T09:15:19.861Z,1016.08
2019-02-24T09:16:30.996Z,1016.11
2019-02-24T09:17:42.150Z,1016.11
2019-02-24T09:18:53.305Z,1016.16
2019-02-24T09:20:04.618Z,1016.18
2019-02-24T09:21:15.770Z,1016.23
2019-02-24T09:22:26.916Z,1016.25
2019-02-24T09:23:38.081Z,1016.22
2019-02-24T09:24:48.729Z,1016.31
2019-02-24T09:25:59.877Z,1016.32
2019-02-24T09:27:11.035Z,1016.32
2019-02-24T09:28:22.183Z,1016.34
2019-02-24T09:29:33.340Z,1016.41
2019-02-24T09:30:43.996Z,1016.42
2019-02-24T09:31:55.142Z,1016.46
2019-02-24T09:33:06.296Z,1016.35
2019-02-24T09:34:17.439Z,1016.34
2019-02-24T09:35:28.625Z,1016.37
2019-02-24T09:36:40.776Z,1016.40
2019-02-24T09:37:51.965Z,1016.38
2019-02-24T09:39:03.120Z,1016.39
2019-02-24T09:40:14.263Z,1016.45
2019-02-24T09:41:25.414Z,1016.45
2019-02-24T09:42:36.614Z,1016.44
2019-02-24T09:43:47.269Z,1016.41
2019-02-24T09:44:57.925Z,1016.40
2019-02-24T09:46:09.081Z,1016.41
2019-02-24T09:47:19.738Z,1016.41
2019-02-24T09:48:30.402Z,1016.42
2019-02-24T09:49:41.563Z,1016.36
2019-02-24T09:50:52.230Z,1016.35
2019-02-24T09:52:03.379Z,1016.36
2019-02-24T09:53:14.627Z,1016.31
2019-02-24T09:54:25.789Z,1016.29
2019-02-24T09:55:36.942Z,1016.29
2019-02-24T09:56:48.112Z,1016.31
2019-02-24T09:57:59.274Z,1016.29
2019-02-24T09:59:10.443Z,1016.28
2019-02-24T10:00:22.097Z,1016.30
2019-02-24T10:01:32.786Z,1016.36
2019-02-24T10:02:43.949Z,1016.36
2019-02-24T10:03:55.121Z,1016.37
2019-02-24T10:05:06.287Z,1016.40
2019-02-24T10:06:16.957Z,1016.47
2019-02-24T10:07:28.139Z,1016.44
2019-02-24T10:08:39.312Z,1016.48
2019-02-24T10:09:50.616Z,1016.49
2019-02-24T10:11:01.792Z,1016.50
2019-02-24T10:12:12.951Z,1016.53
2019-02-24T10:13:24.108Z,1016.51
2019-02-24T10:14:35.276Z,1016.52
2019-02-24T10:15:46.442Z,1016.54
2019-02-24T10:16:57.615Z,1016.52
2019-02-24T10:18:08.768Z,1016.48
2019-02-24T10:19:19.949Z,1016.48
2019-02-24T10:20:30.620Z,1016.44
2019-02-24T10:21:41.289Z,1016.38
2019-02-24T10:22:52.616Z,1016.41
2019-02-24T10:24:03.294Z,1016.37
2019-02-24T10:25:14.620Z,1016.33
2019-02-24T10:26:25.791Z,1016.29
2019-02-24T10:27:36.645Z,1016.21
2019-02-24T10:28:47.830Z,1016.18
2019-02-24T10:29:58.626Z,1016.14
2019-02-24T10:31:09.798Z,1016.07
2019-02-24T10:32:20.968Z,1016.03
2019-02-24T10:33:32.173Z,1015.96
2019-02-24T10:34:43.302Z,1015.93
2019-02-24T10:35:54.617Z,1015.92
2019-02-24T10:37:05.305Z,1015.90
2019-02-24T10:38:16.609Z,1015.80
2019-02-24T10:39:29.843Z,1015.77
2019-02-24T10:40:38.956Z,1015.72
2019-02-24T10:41:50.123Z,1015.70
2019-02-24T10:43:01.298Z,1015.66
2019-02-24T10:44:12.610Z,1015.58
2019-02-24T10:45:23.793Z,1015.50
2019-02-24T10:46:34.972Z,1015.39
2019-02-24T10:47:45.657Z,1015.36
2019-02-24T10:49:03.164Z,1015.33
2019-02-24T10:50:08.001Z,1015.28
2019-02-24T10:51:19.174Z,1015.23
2019-02-24T10:52:30.793Z,1015.23
2019-02-24T10:53:41.552Z,1015.19
2019-02-24T10:54:52.240Z,1015.11
2019-02-24T10:56:03.420Z,1015.08
2019-02-24T10:57:14.621Z,1015.08
2019-02-24T10:58:34.327Z,1015.05
2019-02-24T10:59:37.005Z,1014.99
2019-02-24T11:00:48.197Z,1014.93
2019-02-24T11:01:59.374Z,1014.90
2019-02-24T11:03:10.074Z,1014.83
2019-02-24T11:04:21.255Z,1014.78
2019-02-24T11:05:31.953Z,1014.72
2019-02-24T11:06:42.653Z,1014.68
2019-02-24T11:07:54.840Z,1014.62
2019-02-24T11:09:06.025Z,1014.61
2019-02-24T11:10:16.726Z,1014.57
2019-02-24T11:11:27.908Z,1014.50
2019-02-24T11:12:38.595Z,1014.42
2019-02-24T11:13:49.845Z,1014.43
2019-02-24T11:15:00.983Z,1014.38
2019-02-24T11:16:12.164Z,1014.37
2019-02-24T11:17:23.368Z,1014.42
2019-02-24T11:18:34.616Z,1014.40
2019-02-24T11:19:45.809Z,1014.40
2019-02-24T11:20:57.009Z,1014.91
2019-02-24T11:22:07.718Z,1014.96
2019-02-24T11:23:18.915Z,1015.01
2019-02-24T11:24:30.113Z,1015.04
2019-02-24T11:25:41.316Z,1015.02
2019-02-24T11:26:52.619Z,1015.01
2019-02-24T11:28:03.328Z,1014.94
2019-02-24T11:29:14.616Z,1014.90
2019-02-24T11:30:25.826Z,1014.89
2019-02-24T11:31:38.561Z,1014.94
2019-02-24T11:32:48.243Z,1015.18
2019-02-24T11:33:59.461Z,1015.37
2019-02-24T11:35:10.716Z,1015.49
2019-02-24T11:36:21.438Z,1015.12
2019-02-24T11:37:32.648Z,1014.49
2019-02-24T11:38:43.871Z,1013.84
2019-02-24T11:39:55.093Z,1013.16
2019-02-24T11:41:06.301Z,1012.60
2019-02-24T11:42:18.660Z,1012.49
2019-02-24T11:43:29.866Z,1012.08
2019-02-24T11:44:41.157Z,1011.78
2019-02-24T11:45:52.457Z,1011.63
2019-02-24T11:47:03.771Z,1011.62
2019-02-24T11:48:15.110Z,1011.38
2019-02-24T11:49:26.660Z,1011.24
2019-02-24T11:50:38.045Z,1011.29
2019-02-24T11:51:49.957Z,1011.22
2019-02-24T11:53:01.407Z,1011.24
2019-02-24T11:54:13.144Z,1011.10
2019-02-24T11:55:24.629Z,1011.25
2019-02-24T11:56:36.151Z,1011.45
2019-02-24T11:57:47.694Z,1011.27
2019-02-24T11:58:59.259Z,1011.23
2019-02-24T12:00:10.840Z,1011.27
2019-02-24T12:01:22.433Z,1011.38
2019-02-24T12:02:34.798Z,1011.28
2019-02-24T12:03:45.691Z,1011.29
2019-02-24T12:04:57.368Z,1011.29
2019-02-24T12:06:09.046Z,1011.24
2019-02-24T12:07:20.726Z,1011.27
2019-02-24T12:08:32.448Z,1011.24
2019-02-24T12:09:44.165Z,1011.18
2019-02-24T12:10:55.927Z,1011.15
2019-02-24T12:12:07.680Z,1011.11
2019-02-24T12:13:19.446Z,1011.07
2019-02-24T12:14:31.224Z,1011.08
2019-02-24T12:15:43.013Z,1011.38
2019-02-24T12:16:54.819Z,1011.71
2019-02-24T12:18:06.651Z,1011.70
2019-02-24T12:19:18.614Z,1011.78
2019-02-24T12:20:30.457Z,1011.78
2019-02-24T12:21:42.302Z,1011.75
2019-02-24T12:22:54.163Z,1011.68
2019-02-24T12:24:06.018Z,1011.69
2019-02-24T12:25:17.886Z,1011.68
2019-02-24T12:26:29.765Z,1011.59
2019-02-24T12:27:41.649Z,1011.53
2019-02-24T12:28:53.535Z,1011.66
2019-02-24T12:30:05.427Z,1011.71
2019-02-24T12:31:17.347Z,1011.66
2019-02-24T12:32:30.257Z,1011.68
2019-02-24T12:33:42.170Z,1011.58
2019-02-24T12:34:54.108Z,1011.50
2019-02-24T12:36:06.061Z,1011.52
2019-02-24T12:37:17.990Z,1011.69
2019-02-24T12:38:29.934Z,1011.82
2019-02-24T12:39:41.877Z,1011.81
2019-02-24T12:40:53.856Z,1011.72
2019-02-24T12:42:05.812Z,1011.55
2019-02-24T12:43:17.778Z,1011.42
2019-02-24T12:44:29.751Z,1011.40
2019-02-24T12:45:41.731Z,1011.37
2019-02-24T12:46:53.709Z,1011.57
2019-02-24T12:48:05.684Z,1011.80
2019-02-24T12:49:17.661Z,1011.84
2019-02-24T12:50:29.652Z,1011.58
2019-02-24T12:51:41.646Z,1011.49
2019-02-24T12:52:53.629Z,1011.51
2019-02-24T12:54:05.632Z,1011.55
2019-02-24T12:55:17.639Z,1011.51
2019-02-24T12:56:29.655Z,1011.51
2019-02-24T12:57:41.661Z,1011.50
2019-02-24T12:58:53.674Z,1011.48
2019-02-24T13:00:05.694Z,1011.61
2019-02-24T13:01:17.708Z,1011.69
2019-02-24T13:02:29.721Z,1011.51
2019-02-24T13:03:41.740Z,1011.38
2019-02-24T13:04:53.748Z,1011.36
2019-02-24T13:06:05.743Z,1011.29
2019-02-24T13:07:17.747Z,1011.29
2019-02-24T13:08:29.780Z,1011.30
2019-02-24T13:09:41.754Z,1011.33
2019-02-24T13:10:53.772Z,1011.38
2019-02-24T13:12:06.804Z,1011.35
2019-02-24T13:13:18.814Z,1011.55
2019-02-24T13:14:30.824Z,1011.60
2019-02-24T13:15:42.835Z,1011.56
2019-02-24T13:16:54.856Z,1011.37
2019-02-24T13:18:06.379Z,1011.33
2019-02-24T13:19:18.406Z,1011.21
2019-02-24T13:20:31.419Z,1011.41
2019-02-24T13:21:43.435Z,1011.59
2019-02-24T13:22:55.450Z,1012.03
2019-02-24T13:24:07.611Z,1012.55
2019-02-24T13:25:19.617Z,1012.76
2019-02-24T13:26:31.617Z,1012.92
2019-02-24T13:27:43.619Z,1013.22
2019-02-24T13:28:55.610Z,1013.46
2019-02-24T13:30:07.617Z,1013.62
2019-02-24T13:31:19.659Z,1013.85
2019-02-24T13:32:31.624Z,1014.01
2019-02-24T13:33:43.453Z,1014.09
2019-02-24T13:34:55.255Z,1014.11
2019-02-24T13:36:07.044Z,1014.19
2019-02-24T13:37:18.811Z,1014.24
2019-02-24T13:38:30.566Z,1014.37
2019-02-24T13:39:42.285Z,1014.41
2019-02-24T13:40:54.003Z,1014.36
2019-02-24T13:42:06.690Z,1014.54
2019-02-24T13:43:18.381Z,1014.66
2019-02-24T13:44:30.040Z,1014.50
2019-02-24T13:45:41.682Z,1014.19
2019-02-24T13:46:53.332Z,1014.06
2019-02-24T13:48:04.956Z,1013.75
2019-02-24T13:49:16.592Z,1013.45
2019-02-24T13:50:28.211Z,1013.19
2019-02-24T13:51:39.822Z,1013.10
2019-02-24T13:52:51.439Z,1012.99
2019-02-24T13:54:03.066Z,1012.98
2019-02-24T13:55:14.701Z,1012.85
2019-02-24T13:56:26.354Z,1012.72
2019-02-24T13:57:38.009Z,1012.67
2019-02-24T13:58:49.685Z,1012.48
2019-02-24T14:00:01.464Z,1012.27
2019-02-24T14:01:13.069Z,1012.22
2019-02-24T14:02:24.792Z,1012.08
2019-02-24T14:03:36.518Z,1012.00
2019-02-24T14:04:48.272Z,1011.88
2019-02-24T14:06:00.036Z,1011.90
2019-02-24T14:07:11.803Z,1011.99
2019-02-24T14:08:23.615Z,1011.91
2019-02-24T14:09:35.415Z,1011.86
2019-02-24T14:10:47.204Z,1011.79
2019-02-24T14:11:59.010Z,1011.80
2019-02-24T14:13:10.830Z,1011.78
2019-02-24T14:14:22.650Z,1011.65
2019-02-24T14:15:34.945Z,1011.59
2019-02-24T14:16:46.787Z,1011.57
2019-02-24T14:17:58.615Z,1011.45
2019-02-24T14:19:11.460Z,1011.55
2019-02-24T14:20:23.299Z,1011.70
2019-02-24T14:21:35.150Z,1011.65